Time;durP1;ratioP1;P1;durP2;ratioP2;P2;SDS_P1;SDS_P2;PMS_P1;PMS_P2;Temp;Humidity;BMP_temperature;BMP_pressure;BME280_temperature;BME280_humidity;BME280_pressure;Samples;Min_cycle;Max_cycle;Signal;HPM_P1;HPM_P2
2021/05/11 00:01:19;;;;;;;2.47;0.40;;;16.90;67.30;;;;;;5057703;28;20045;-72
2021/05/11 00:03:48;;;;;;;1.98;0.50;;;16.90;67.50;;;;;;5062956;28;20041;-72
2021/05/11 00:06:15;;;;;;;2.20;0.45;;;16.80;67.50;;;;;;5067674;28;20574;-71
2021/05/11 00:08:41;;;;;;;1.00;0.35;;;16.80;67.60;;;;;;5054528;28;20405;-72
2021/05/11 00:11:08;;;;;;;2.42;0.40;;;16.70;67.60;;;;;;5071685;28;20123;-72
2021/05/11 00:13:34;;;;;;;2.03;0.40;;;16.70;67.70;;;;;;5076939;28;20043;-72
2021/05/11 00:16:04;;;;;;;2.35;0.32;;;16.60;67.80;;;;;;5072552;28;20447;-72
2021/05/11 00:18:33;;;;;;;1.83;0.30;;;16.60;67.80;;;;;;5072210;28;20102;-72
2021/05/11 00:21:01;;;;;;;1.38;0.40;;;16.60;67.90;;;;;;5052243;28;20044;-72
2021/05/11 00:23:28;;;;;;;2.78;0.38;;;16.60;68.00;;;;;;5071711;28;20044;-73
2021/05/11 00:25:55;;;;;;;1.67;0.32;;;16.60;68.00;;;;;;5079820;28;20106;-72
2021/05/11 00:28:23;;;;;;;1.10;0.40;;;16.60;68.10;;;;;;5069708;28;20508;-71
2021/05/11 00:30:50;;;;;;;0.52;0.30;;;16.50;68.10;;;;;;5072296;28;20037;-71
2021/05/11 00:33:19;;;;;;;1.02;0.50;;;16.50;68.10;;;;;;5072698;28;20045;-73
2021/05/11 00:35:46;;;;;;;1.60;0.40;;;16.50;68.20;;;;;;5067982;28;20617;-72
2021/05/11 00:38:13;;;;;;;2.60;0.40;;;16.50;68.30;;;;;;5051179;28;20060;-72
2021/05/11 00:40:40;;;;;;;1.15;0.30;;;16.50;68.40;;;;;;5041719;28;20075;-72
2021/05/11 00:43:06;;;;;;;1.48;0.40;;;16.50;68.50;;;;;;5053277;28;20048;-72
2021/05/11 00:45:33;;;;;;;1.73;0.43;;;16.40;68.50;;;;;;5072632;28;20086;-72
2021/05/11 00:47:59;;;;;;;2.40;0.60;;;16.40;68.50;;;;;;5073651;28;20098;-72
2021/05/11 00:50:26;;;;;;;1.52;0.60;;;16.40;68.60;;;;;;5071736;28;20028;-72
2021/05/11 00:52:53;;;;;;;1.58;0.47;;;16.30;68.70;;;;;;5055466;28;20071;-72
2021/05/11 00:55:19;;;;;;;3.90;0.57;;;16.30;68.70;;;;;;5072898;28;20033;-72
2021/05/11 00:57:46;;;;;;;2.15;0.52;;;16.30;68.80;;;;;;5071010;28;20086;-72
2021/05/11 01:00:14;;;;;;;5.40;0.70;;;16.20;68.90;;;;;;5070549;28;20049;-71
2021/05/11 01:02:40;;;;;;;4.65;0.77;;;16.20;69.10;;;;;;5065919;28;20056;-72
2021/05/11 01:05:08;;;;;;;1.92;0.50;;;16.10;69.20;;;;;;5071836;28;20507;-72
2021/05/11 01:07:35;;;;;;;3.00;0.50;;;16.10;69.20;;;;;;5068419;28;20457;-72
2021/05/11 01:10:05;;;;;;;3.60;0.73;;;16.10;69.30;;;;;;5064561;28;20446;-72
2021/05/11 01:12:32;;;;;;;3.60;0.77;;;16.10;69.40;;;;;;5054716;28;20037;-72
2021/05/11 01:14:58;;;;;;;3.63;0.50;;;16.10;69.50;;;;;;5072067;28;20036;-72
2021/05/11 01:17:32;;;;;;;2.20;0.90;;;16.00;69.50;;;;;;5066734;28;20404;-72
2021/05/11 01:20:03;;;;;;;1.45;0.60;;;16.10;69.70;;;;;;5071648;28;20037;-72
2021/05/11 01:25:14;;;;;;;2.90;0.82;;;16.00;69.80;;;;;;5071474;28;20052;-73
2021/05/11 01:44:51;;;;;;;2.33;0.50;;;15.90;70.50;;;;;;5070974;28;20056;-72
2021/05/11 01:47:24;;;;;;;2.10;0.55;;;15.90;70.60;;;;;;5070950;28;20518;-72
2021/05/11 01:50:10;;;;;;;1.33;0.52;;;15.80;70.70;;;;;;5071846;28;20036;-72
2021/05/11 02:22:50;;;;;;;2.90;0.88;;;15.50;72.50;;;;;;5066603;28;20045;-71
2021/05/11 02:25:17;;;;;;;2.13;1.05;;;15.50;72.60;;;;;;5053285;28;20048;-71
2021/05/11 02:27:44;;;;;;;5.00;1.00;;;15.40;72.70;;;;;;5069768;28;20036;-71
2021/05/11 02:30:15;;;;;;;2.15;0.82;;;15.40;72.80;;;;;;5071284;28;20033;-71
2021/05/11 02:32:43;;;;;;;2.70;0.57;;;15.40;73.00;;;;;;5073817;28;20032;-71
2021/05/11 02:35:13;;;;;;;3.55;0.82;;;15.40;73.70;;;;;;5053350;28;20095;-71
2021/05/11 02:37:39;;;;;;;2.85;0.90;;;15.40;73.20;;;;;;5068038;28;20114;-71
2021/05/11 02:40:09;;;;;;;3.70;1.10;;;15.40;73.20;;;;;;5073305;28;20052;-72
2021/05/11 02:42:38;;;;;;;2.97;1.10;;;15.40;73.30;;;;;;5073144;28;20059;-71
2021/05/11 02:45:09;;;;;;;2.45;0.90;;;15.40;73.40;;;;;;5073077;28;20049;-71
2021/05/11 02:47:47;;;;;;;2.50;1.08;;;15.40;73.50;;;;;;5074094;28;20041;-72
2021/05/11 02:50:34;;;;;;;2.35;1.00;;;15.40;73.60;;;;;;5059356;28;20040;-71
2021/05/11 02:53:03;;;;;;;1.88;1.13;;;15.40;73.70;;;;;;5074175;28;20041;-71
2021/05/11 02:55:30;;;;;;;3.15;1.05;;;15.40;73.80;;;;;;5073030;28;20047;-70
2021/05/11 02:57:57;;;;;;;4.13;0.82;;;15.40;73.80;;;;;;5073995;28;20060;-71
2021/05/11 03:00:26;;;;;;;5.18;1.45;;;15.40;74.00;;;;;;5068565;28;20502;-71
2021/05/11 03:02:57;;;;;;;3.38;1.23;;;15.40;74.10;;;;;;5051939;28;20053;-71
2021/05/11 03:05:24;;;;;;;2.60;0.98;;;15.40;74.20;;;;;;5071668;28;20488;-71
2021/05/11 03:07:52;;;;;;;2.58;1.20;;;15.40;74.30;;;;;;5056396;28;20049;-71
2021/05/11 03:10:19;;;;;;;3.05;1.35;;;15.40;74.40;;;;;;5074415;28;20092;-72
2021/05/11 03:12:46;;;;;;;5.85;1.50;;;15.30;74.30;;;;;;5072813;28;20107;-71
2021/05/11 03:15:13;;;;;;;4.15;1.50;;;15.40;74.60;;;;;;5072846;28;20086;-71
2021/05/11 03:17:40;;;;;;;4.32;1.40;;;15.30;74.60;;;;;;5074109;28;20037;-71
2021/05/11 03:20:09;;;;;;;4.03;1.27;;;15.40;74.80;;;;;;5072271;28;20052;-71
2021/05/11 03:22:36;;;;;;;3.20;1.02;;;15.30;74.80;;;;;;5039775;28;20055;-71
2021/05/11 03:25:03;;;;;;;2.70;0.98;;;15.30;74.80;;;;;;5073787;28;20040;-71
2021/05/11 03:27:30;;;;;;;2.58;1.15;;;15.30;74.70;;;;;;5073042;28;20048;-70
2021/05/11 03:29:56;;;;;;;2.88;1.08;;;15.30;74.80;;;;;;5074181;28;20387;-71
2021/05/11 03:32:23;;;;;;;2.78;1.15;;;15.20;74.80;;;;;;5073941;28;20033;-71
2021/05/11 03:34:49;;;;;;;2.13;1.10;;;15.30;75.00;;;;;;5073491;28;20052;-71
2021/05/11 03:37:16;;;;;;;3.58;1.00;;;15.30;75.10;;;;;;5071360;28;20045;-71
2021/05/11 03:39:43;;;;;;;2.85;1.10;;;15.30;75.20;;;;;;5071801;28;20045;-71
2021/05/11 03:44:45;;;;;;;2.20;1.20;;;15.30;75.30;;;;;;5072588;28;20139;-71
2021/05/11 03:47:14;;;;;;;4.82;1.25;;;15.30;75.40;;;;;;5073209;28;20267;-71
2021/05/11 03:49:41;;;;;;;1.98;0.95;;;15.30;75.40;;;;;;5072291;28;20555;-71
2021/05/11 03:52:08;;;;;;;2.08;1.10;;;15.30;75.50;;;;;;5070543;28;20411;-71
2021/05/11 03:54:36;;;;;;;2.58;1.17;;;15.30;75.50;;;;;;5073079;28;20378;-71
2021/05/11 03:57:04;;;;;;;4.95;1.10;;;15.30;75.50;;;;;;5071221;28;20041;-71
2021/05/11 03:59:31;;;;;;;3.15;1.10;;;15.30;75.60;;;;;;5071985;28;20055;-72
2021/05/11 04:01:59;;;;;;;3.70;1.15;;;15.30;75.70;;;;;;5052119;28;20044;-72
2021/05/11 04:04:26;;;;;;;3.88;1.23;;;15.20;75.70;;;;;;5062990;28;20048;-72
2021/05/11 04:06:53;;;;;;;3.95;1.00;;;15.20;75.90;;;;;;5072800;28;20101;-72
2021/05/11 04:09:34;;;;;;;4.05;1.40;;;15.20;75.90;;;;;;5051769;28;20045;-71
2021/05/11 04:12:20;;;;;;;3.92;1.35;;;15.20;76.00;;;;;;5070203;28;20048;-70
2021/05/11 04:17:32;;;;;;;3.53;0.98;;;15.20;76.10;;;;;;5070927;28;20461;-71
2021/05/11 04:20:00;;;;;;;2.30;1.13;;;15.20;76.10;;;;;;5072248;28;20046;-71
2021/05/11 04:22:27;;;;;;;2.22;0.93;;;15.20;76.00;;;;;;5071266;28;20098;-70
2021/05/11 04:24:55;;;;;;;3.40;1.10;;;15.20;76.00;;;;;;5072756;28;20078;-71
2021/05/11 04:27:22;;;;;;;2.17;1.00;;;15.20;76.10;;;;;;5072659;28;20036;-72
2021/05/11 04:29:52;;;;;;;2.38;1.05;;;15.20;76.20;;;;;;5071848;28;20036;-72
2021/05/11 04:32:19;;;;;;;3.47;1.17;;;15.20;76.30;;;;;;5071031;28;20090;-72
2021/05/11 04:34:46;;;;;;;3.03;1.30;;;15.20;76.40;;;;;;5073254;28;20040;-72
2021/05/11 04:37:13;;;;;;;2.97;1.10;;;15.20;76.40;;;;;;5072291;28;20052;-72
2021/05/11 04:39:40;;;;;;;3.90;1.27;;;15.20;76.50;;;;;;5071387;28;20046;-72
2021/05/11 04:42:07;;;;;;;2.58;1.08;;;15.20;76.50;;;;;;5072114;28;20061;-71
2021/05/11 04:44:35;;;;;;;4.38;1.15;;;15.20;76.50;;;;;;5071241;28;20049;-72
2021/05/11 04:47:09;;;;;;;2.90;1.17;;;15.30;76.50;;;;;;5071746;28;20049;-72
2021/05/11 04:49:37;;;;;;;2.53;1.15;;;15.30;76.50;;;;;;5066950;28;20036;-72
2021/05/11 04:52:06;;;;;;;4.72;1.23;;;15.30;76.50;;;;;;5071333;28;20408;-72
2021/05/11 04:54:34;;;;;;;2.47;1.08;;;15.30;76.50;;;;;;5070271;28;20078;-72
2021/05/11 04:57:01;;;;;;;1.90;0.90;;;15.30;76.50;;;;;;5068269;28;20048;-72
2021/05/11 04:59:28;;;;;;;2.92;1.38;;;15.30;76.50;;;;;;5071025;28;20047;-72
2021/05/11 05:01:56;;;;;;;2.15;1.08;;;15.30;76.40;;;;;;5070920;28;20052;-72
2021/05/11 05:04:24;;;;;;;2.65;1.00;;;15.40;76.50;;;;;;5070123;28;20045;-72
2021/05/11 05:06:53;;;;;;;6.18;1.27;;;15.40;76.50;;;;;;5072059;28;20044;-72
2021/05/11 05:09:20;;;;;;;3.67;1.33;;;15.40;76.50;;;;;;5052185;28;20045;-71
2021/05/11 05:11:47;;;;;;;2.47;1.05;;;15.50;76.40;;;;;;5071128;28;20044;-72
2021/05/11 05:14:14;;;;;;;3.20;1.15;;;15.50;76.30;;;;;;5070863;28;20040;-72
2021/05/11 05:16:41;;;;;;;3.05;1.10;;;15.50;76.30;;;;;;5072059;28;20032;-72
2021/05/11 05:19:09;;;;;;;4.75;1.27;;;15.50;76.30;;;;;;5071675;28;20058;-72
2021/05/11 05:21:38;;;;;;;2.33;0.90;;;15.50;76.30;;;;;;5071286;28;20051;-72
2021/05/11 05:24:14;;;;;;;3.38;1.20;;;15.50;76.20;;;;;;5071816;28;20048;-72
2021/05/11 05:26:44;;;;;;;2.67;1.10;;;15.60;76.20;;;;;;5071134;28;20499;-72
2021/05/11 05:29:11;;;;;;;3.55;0.93;;;15.60;76.20;;;;;;5070723;28;20100;-72
2021/05/11 05:31:39;;;;;;;2.75;0.90;;;15.60;76.20;;;;;;5070541;28;20103;-72
2021/05/11 05:34:06;;;;;;;2.33;1.00;;;15.60;76.10;;;;;;5053686;28;20064;-72
2021/05/11 05:36:33;;;;;;;1.40;0.70;;;15.60;76.10;;;;;;5071737;28;20047;-73
2021/05/11 05:39:00;;;;;;;2.10;0.80;;;15.60;76.10;;;;;;5071014;28;20041;-73
2021/05/11 05:41:27;;;;;;;2.20;1.15;;;15.70;76.10;;;;;;5070458;28;20044;-72
2021/05/11 05:43:58;;;;;;;3.35;0.80;;;15.70;76.10;;;;;;5072205;28;20551;-72
2021/05/11 05:46:26;;;;;;;2.80;0.98;;;15.70;76.10;;;;;;5070699;28;20044;-72
2021/05/11 05:48:53;;;;;;;2.72;0.90;;;15.70;76.10;;;;;;5071103;28;20041;-72
2021/05/11 05:51:21;;;;;;;2.53;0.93;;;15.70;76.10;;;;;;5071580;28;20028;-72
2021/05/11 05:53:48;;;;;;;4.10;1.13;;;15.70;76.10;;;;;;5071490;28;20483;-72
2021/05/11 05:56:18;;;;;;;4.07;1.00;;;15.80;76.20;;;;;;5071636;28;20044;-72
2021/05/11 05:58:45;;;;;;;3.83;0.85;;;15.80;76.10;;;;;;5077031;28;20056;-71
2021/05/11 06:01:16;;;;;;;2.75;0.90;;;15.80;76.10;;;;;;5062051;28;20045;-71
2021/05/11 06:06:11;;;;;;;3.08;1.13;;;15.90;76.00;;;;;;5050717;28;20057;-71
2021/05/11 06:08:40;;;;;;;3.78;1.27;;;16.00;75.90;;;;;;5043144;28;20041;-71
2021/05/11 06:13:39;;;;;;;4.82;1.38;;;16.10;75.90;;;;;;5070238;28;20040;-71
2021/05/11 06:18:53;;;;;;;3.30;1.15;;;16.20;75.90;;;;;;5075161;28;20047;-71
2021/05/11 06:21:20;;;;;;;3.22;1.20;;;16.20;75.80;;;;;;5075072;28;20032;-71
2021/05/11 06:23:47;;;;;;;4.63;1.38;;;16.20;75.80;;;;;;5073309;28;20052;-71
2021/05/11 06:26:14;;;;;;;3.30;1.10;;;16.30;75.80;;;;;;5057052;28;20044;-71
2021/05/11 06:28:43;;;;;;;2.67;0.82;;;16.30;75.70;;;;;;5074909;28;20487;-73
2021/05/11 06:31:11;;;;;;;2.40;1.10;;;16.40;75.60;;;;;;5074856;28;20082;-72
2021/05/11 06:33:38;;;;;;;2.10;0.90;;;16.50;75.60;;;;;;5074702;28;20041;-72
2021/05/11 06:36:06;;;;;;;3.40;1.15;;;16.50;75.40;;;;;;5074914;28;20068;-72
2021/05/11 06:38:33;;;;;;;3.88;1.42;;;16.60;75.30;;;;;;5073582;28;20098;-72
2021/05/11 06:41:01;;;;;;;1.95;0.95;;;16.70;75.20;;;;;;5073448;28;20049;-72
2021/05/11 06:43:31;;;;;;;3.42;1.08;;;16.80;75.10;;;;;;5057220;28;20732;-73
2021/05/11 06:48:35;;;;;;;2.10;1.00;;;16.80;74.90;;;;;;5074277;28;20072;-72
2021/05/11 06:53:43;;;;;;;3.72;1.67;;;16.90;74.80;;;;;;5071275;28;20036;-72
2021/05/11 06:56:11;;;;;;;3.42;1.33;;;16.90;74.70;;;;;;5072792;28;20107;-72
2021/05/11 06:58:39;;;;;;;2.90;1.45;;;17.00;74.80;;;;;;5073282;28;20082;-75
2021/05/11 07:01:06;;;;;;;3.33;1.42;;;17.00;74.70;;;;;;5073557;28;20051;-73
2021/05/11 07:03:34;;;;;;;4.05;1.90;;;17.10;74.60;;;;;;5073568;28;20405;-73
2021/05/11 07:06:02;;;;;;;2.92;1.15;;;17.10;74.60;;;;;;5073544;28;20068;-72
2021/05/11 07:08:38;;;;;;;3.78;1.55;;;17.20;74.40;;;;;;5056569;28;20037;-72
2021/05/11 07:13:49;;;;;;;4.20;1.08;;;17.40;74.10;;;;;;5059053;28;20047;-72
2021/05/11 07:16:17;;;;;;;3.35;1.52;;;17.60;73.90;;;;;;5073442;28;20041;-72
2021/05/11 07:18:44;;;;;;;3.58;1.35;;;17.80;73.60;;;;;;5073672;28;20068;-72
2021/05/11 07:21:11;;;;;;;3.92;1.48;;;18.00;73.20;;;;;;5075380;28;20044;-73
2021/05/11 07:23:39;;;;;;;3.45;1.52;;;18.10;72.80;;;;;;5074325;28;20056;-73
2021/05/11 07:31:32;;;;;;;4.10;1.80;;;18.40;72.20;;;;;;5075278;28;20063;-73
2021/05/11 07:34:01;;;;;;;4.32;1.20;;;18.50;71.80;;;;;;5074184;28;20060;-73
2021/05/11 07:36:28;;;;;;;3.75;1.42;;;18.50;71.60;;;;;;5075105;28;20480;-73
2021/05/11 07:38:55;;;;;;;2.20;1.02;;;18.70;71.30;;;;;;5075532;28;20131;-72
2021/05/11 07:41:22;;;;;;;2.72;1.23;;;18.80;71.10;;;;;;5073343;28;20032;-72
2021/05/11 07:43:54;;;;;;;2.78;1.30;;;19.00;70.50;;;;;;5055654;28;20059;-74
2021/05/11 08:15:35;;;;;;;3.40;1.55;;;19.80;67.90;;;;;;5072173;28;20037;-73
2021/05/11 08:29:07;;;;;;;6.50;2.05;;;19.50;68.10;;;;;;5056877;28;20037;-73
2021/05/11 08:31:34;;;;;;;5.22;2.22;;;19.40;68.20;;;;;;5070836;28;20036;-72
2021/05/11 08:34:02;;;;;;;4.53;2.03;;;19.40;68.40;;;;;;5073008;28;20040;-72
2021/05/11 08:36:29;;;;;;;3.97;2.10;;;19.30;68.40;;;;;;5071953;28;20063;-73
2021/05/11 08:38:59;;;;;;;4.95;2.47;;;19.30;68.60;;;;;;5072789;28;20044;-71
2021/05/11 08:41:27;;;;;;;4.15;2.25;;;19.20;68.80;;;;;;5056536;28;20048;-71
2021/05/11 08:43:54;;;;;;;5.25;2.78;;;19.20;69.00;;;;;;5077310;28;20079;-75
2021/05/11 08:46:21;;;;;;;4.60;2.20;;;19.00;69.00;;;;;;5055069;28;20045;-74
2021/05/11 08:48:50;;;;;;;5.03;2.40;;;19.00;69.20;;;;;;5070625;28;20094;-75
2021/05/11 08:51:32;;;;;;;4.55;2.20;;;18.90;69.20;;;;;;5072657;28;20550;-73
2021/05/11 08:54:35;;;;;;;4.65;1.95;;;18.90;69.40;;;;;;5060426;28;20064;-75
2021/05/11 09:08:10;;;;;;;4.78;1.88;;;18.70;69.70;;;;;;5066044;28;20044;-74
2021/05/11 09:25:29;;;;;;;2.67;1.60;;;18.40;69.90;;;;;;5067657;28;20048;-73
2021/05/11 09:28:06;;;;;;;4.60;1.67;;;18.40;69.90;;;;;;5054428;28;20057;-74
2021/05/11 10:49:24;;;;;;;4.20;1.58;;;20.50;61.70;;;;;;5076120;28;20097;-75
2021/05/11 10:52:10;;;;;;;5.85;1.42;;;20.60;62.00;;;;;;5074118;28;20063;-74
2021/05/11 10:54:46;;;;;;;1.48;0.70;;;20.90;60.10;;;;;;5073988;28;20052;-73
2021/05/11 10:57:29;;;;;;;3.85;0.80;;;21.30;59.90;;;;;;5073828;28;20056;-73
2021/05/11 11:00:04;;;;;;;1.40;0.43;;;21.60;58.80;;;;;;5073251;28;20040;-74
2021/05/11 11:05:03;;;;;;;3.25;0.52;;;21.60;58.30;;;;;;5055599;28;20077;-73
2021/05/11 11:07:35;;;;;;;0.83;0.37;;;21.60;58.20;;;;;;5075523;28;20095;-75
2021/05/11 11:10:06;;;;;;;1.63;0.40;;;21.50;58.20;;;;;;5075338;28;20298;-73
2021/05/11 11:12:35;;;;;;;2.60;0.30;;;21.60;58.30;;;;;;5075509;28;20495;-73
2021/05/11 11:15:05;;;;;;;1.13;0.40;;;21.70;57.70;;;;;;5074318;28;20504;-73
2021/05/11 11:17:40;;;;;;;1.90;0.43;;;21.60;57.30;;;;;;5075783;28;20102;-73
2021/05/11 11:20:11;;;;;;;2.78;0.50;;;21.50;57.20;;;;;;5075563;28;20052;-71
2021/05/11 11:25:27;;;;;;;2.35;0.90;;;21.30;57.40;;;;;;5074726;28;20036;-73
2021/05/11 11:27:54;;;;;;;2.65;0.90;;;21.10;57.80;;;;;;5074027;28;20041;-73
2021/05/11 11:30:21;;;;;;;3.17;0.77;;;21.00;58.00;;;;;;5067643;28;20043;-72
2021/05/11 11:33:03;;;;;;;2.95;0.90;;;20.90;58.50;;;;;;5055907;28;20055;-72
2021/05/11 11:35:37;;;;;;;3.13;0.70;;;20.70;58.30;;;;;;5070136;28;20498;-73
2021/05/11 11:38:05;;;;;;;2.55;0.90;;;20.40;58.40;;;;;;5058799;28;20064;-73
2021/05/11 11:40:32;;;;;;;2.40;0.60;;;20.20;58.70;;;;;;5074344;28;20484;-73
2021/05/11 11:42:59;;;;;;;2.60;0.82;;;20.00;58.90;;;;;;5057892;28;20439;-76
2021/05/11 11:45:30;;;;;;;1.40;0.50;;;19.90;59.00;;;;;;5074811;28;20342;-75
2021/05/11 11:48:05;;;;;;;2.65;0.60;;;19.70;59.20;;;;;;5042960;28;20067;-76
2021/05/11 11:50:38;;;;;;;2.63;0.68;;;19.60;59.50;;;;;;5072908;28;20044;-76
2021/05/11 11:53:15;;;;;;;4.47;0.60;;;19.50;59.70;;;;;;5073093;28;20446;-76
2021/05/11 11:58:22;;;;;;;3.03;0.80;;;19.30;60.00;;;;;;5060903;28;20028;-72
2021/05/11 12:00:50;;;;;;;2.78;0.60;;;19.20;60.30;;;;;;5066989;28;20087;-76
2021/05/11 12:03:19;;;;;;;3.40;0.75;;;19.00;60.40;;;;;;5068932;28;20682;-71
2021/05/11 12:05:59;;;;;;;3.20;0.70;;;18.90;60.50;;;;;;5065989;28;20056;-71
2021/05/11 12:08:31;;;;;;;2.75;0.77;;;18.90;60.70;;;;;;5064984;28;20056;-72
2021/05/11 12:11:01;;;;;;;2.40;0.60;;;18.70;60.90;;;;;;5067421;28;20044;-72
2021/05/11 12:13:31;;;;;;;3.83;0.65;;;18.70;61.10;;;;;;5067088;28;20279;-72
2021/05/11 12:16:17;;;;;;;2.35;0.90;;;18.60;61.30;;;;;;5076522;28;20059;-72
2021/05/11 12:19:06;;;;;;;3.63;0.60;;;18.50;61.50;;;;;;5064121;28;20488;-72
2021/05/11 12:21:36;;;;;;;2.17;0.63;;;18.40;61.90;;;;;;5051717;28;20387;-72
2021/05/11 12:24:08;;;;;;;2.95;0.80;;;18.30;62.30;;;;;;5046111;28;20094;-72
2021/05/11 12:26:48;;;;;;;2.78;0.63;;;18.20;62.90;;;;;;5056679;28;20098;-71
2021/05/11 12:29:34;;;;;;;3.85;0.82;;;18.10;63.30;;;;;;5060938;28;20095;-71
2021/05/11 12:32:02;;;;;;;4.32;1.35;;;17.90;64.00;;;;;;5068445;28;20082;-72
2021/05/11 12:34:29;;;;;;;2.90;1.48;;;17.80;64.70;;;;;;5055483;28;20112;-70
2021/05/11 12:37:00;;;;;;;4.57;1.70;;;17.80;65.50;;;;;;5068498;28;20216;-72
2021/05/11 12:39:44;;;;;;;4.38;1.90;;;17.70;66.30;;;;;;5063274;28;20079;-72
2021/05/11 12:42:16;;;;;;;4.57;1.98;;;17.60;67.00;;;;;;5052284;28;20040;-73
2021/05/11 12:44:45;;;;;;;4.88;2.25;;;17.50;67.60;;;;;;5070092;28;20040;-73
2021/05/11 12:47:16;;;;;;;2.80;1.67;;;17.40;68.00;;;;;;5069446;28;20056;-73
2021/05/11 12:49:43;;;;;;;3.60;1.80;;;17.40;68.70;;;;;;5068769;28;20403;-75
2021/05/11 12:52:11;;;;;;;5.63;1.98;;;17.40;69.10;;;;;;5070384;28;20052;-74
2021/05/11 12:54:48;;;;;;;4.82;2.30;;;17.40;69.40;;;;;;5070661;28;20082;-73
2021/05/11 12:57:35;;;;;;;3.38;2.00;;;17.40;69.70;;;;;;5070461;28;20045;-74
2021/05/11 13:00:11;;;;;;;3.97;2.13;;;17.30;70.20;;;;;;5070674;28;20041;-74
2021/05/11 13:17:08;;;;;;;3.20;1.35;;;16.90;71.90;;;;;;5068034;28;20137;-72
2021/05/11 13:22:34;;;;;;;2.00;1.20;;;16.90;72.20;;;;;;5068649;28;20067;-73
2021/05/11 13:25:21;;;;;;;3.75;1.30;;;17.00;72.40;;;;;;5069085;28;20094;-73
2021/05/11 13:28:06;;;;;;;2.65;1.40;;;17.00;72.30;;;;;;5056042;28;20037;-74
2021/05/11 13:31:16;;;;;;;3.10;1.20;;;17.10;72.30;;;;;;5051962;28;20102;-76
2021/05/11 13:33:51;;;;;;;2.28;1.23;;;17.20;72.30;;;;;;5066632;28;20075;-75
2021/05/11 13:36:19;;;;;;;2.05;0.90;;;17.30;72.40;;;;;;5065785;28;20120;-75
2021/05/11 13:38:46;;;;;;;5.78;1.45;;;17.30;72.40;;;;;;5067997;28;20400;-74
2021/05/11 13:41:13;;;;;;;3.20;1.40;;;17.30;72.40;;;;;;5035523;28;20067;-74
2021/05/11 13:43:43;;;;;;;5.00;1.80;;;17.30;72.70;;;;;;5049427;28;20499;-73
2021/05/11 13:46:10;;;;;;;4.32;1.52;;;17.30;72.90;;;;;;5063210;28;20045;-74
2021/05/11 13:48:43;;;;;;;2.97;1.17;;;17.30;73.10;;;;;;5068084;28;20043;-73
2021/05/11 13:51:18;;;;;;;2.92;1.20;;;17.30;73.10;;;;;;5069858;28;20086;-74
2021/05/11 13:53:49;;;;;;;2.85;1.48;;;17.30;73.20;;;;;;5060842;28;20028;-74
2021/05/11 14:04:40;;;;;;;4.30;1.45;;;17.00;73.70;;;;;;5067046;28;20404;-73
2021/05/11 14:07:07;;;;;;;3.92;1.77;;;16.90;73.80;;;;;;5051512;28;20442;-73
2021/05/11 14:09:39;;;;;;;3.58;1.52;;;17.00;74.10;;;;;;5049521;28;20821;-73
2021/05/11 14:12:07;;;;;;;4.25;1.50;;;16.90;74.10;;;;;;5067615;28;20029;-73
2021/05/11 14:14:34;;;;;;;3.35;1.55;;;16.90;74.30;;;;;;5068746;28;20036;-73
2021/05/11 14:17:01;;;;;;;5.25;2.15;;;16.90;74.50;;;;;;5070689;28;20041;-73
2021/05/11 14:19:32;;;;;;;3.75;2.28;;;16.90;74.70;;;;;;5069947;28;20472;-74
2021/05/11 14:22:00;;;;;;;3.85;1.92;;;16.90;74.90;;;;;;5057563;28;20045;-73
2021/05/11 14:24:27;;;;;;;4.43;1.95;;;16.90;75.00;;;;;;5065300;28;20098;-72
2021/05/11 14:26:54;;;;;;;3.97;2.08;;;16.90;75.20;;;;;;5063817;28;20109;-72
2021/05/11 14:29:26;;;;;;;7.57;2.20;;;16.80;75.20;;;;;;5064214;28;20051;-73
2021/05/11 14:31:53;;;;;;;3.47;2.03;;;16.90;75.40;;;;;;5052983;28;20033;-72
2021/05/11 14:34:25;;;;;;;5.00;2.13;;;16.90;75.50;;;;;;5057752;28;20045;-73
2021/05/11 14:36:53;;;;;;;3.95;1.88;;;16.80;75.50;;;;;;5056199;28;20408;-73
2021/05/11 14:39:22;;;;;;;4.32;1.83;;;16.90;75.60;;;;;;5052705;28;20377;-73
2021/05/11 14:41:54;;;;;;;3.05;1.52;;;16.90;75.70;;;;;;5072301;28;20036;-73
2021/05/11 14:44:22;;;;;;;4.13;1.70;;;16.90;75.50;;;;;;5069473;28;20068;-74
2021/05/11 14:46:51;;;;;;;4.53;1.60;;;16.90;75.50;;;;;;5066691;28;20091;-74
2021/05/11 14:49:19;;;;;;;2.13;1.48;;;16.90;75.50;;;;;;5073178;28;20052;-73
2021/05/11 14:51:46;;;;;;;2.83;1.30;;;16.90;75.60;;;;;;5071809;28;20511;-73
2021/05/11 14:54:13;;;;;;;3.22;1.77;;;17.00;75.60;;;;;;5071195;28;20460;-72
2021/05/11 14:56:41;;;;;;;3.08;1.90;;;17.00;75.70;;;;;;5061929;28;20044;-72
2021/05/11 14:59:09;;;;;;;4.00;2.15;;;17.00;75.80;;;;;;5057194;28;20029;-72
2021/05/11 15:01:37;;;;;;;5.38;3.22;;;17.00;76.00;;;;;;5057749;28;20037;-76
2021/05/11 15:04:06;;;;;;;4.97;3.33;;;17.00;76.00;;;;;;5067369;28;20064;-76
2021/05/11 15:06:34;;;;;;;5.05;3.58;;;16.90;76.20;;;;;;5060410;28;20041;-75
2021/05/11 15:09:02;;;;;;;4.68;3.13;;;16.90;76.30;;;;;;5062907;28;20047;-75
2021/05/11 15:11:29;;;;;;;4.13;2.67;;;16.90;76.50;;;;;;5058288;28;20074;-75
2021/05/11 15:13:58;;;;;;;4.13;3.20;;;16.90;77.20;;;;;;5070937;28;20060;-74
2021/05/11 15:16:26;;;;;;;4.82;2.72;;;16.80;76.70;;;;;;5058863;28;20507;-75
2021/05/11 15:18:53;;;;;;;4.05;3.10;;;16.80;76.80;;;;;;5073741;28;20040;-75
2021/05/11 15:21:20;;;;;;;4.38;2.97;;;16.80;76.80;;;;;;5048654;28;20503;-77
2021/05/11 15:23:48;;;;;;;4.82;2.97;;;16.80;76.80;;;;;;5070461;28;20439;-75
2021/05/11 15:26:19;;;;;;;4.95;3.40;;;16.80;76.80;;;;;;5068008;28;20128;-75
2021/05/11 15:28:46;;;;;;;4.28;2.95;;;16.70;76.90;;;;;;5055651;28;20404;-76
2021/05/11 15:31:13;;;;;;;5.10;3.13;;;16.70;77.00;;;;;;5068905;28;20033;-76
2021/05/11 15:33:41;;;;;;;4.82;3.15;;;16.70;77.10;;;;;;5056545;28;20040;-76
2021/05/11 15:36:08;;;;;;;4.78;3.40;;;16.70;77.10;;;;;;5066986;28;20044;-78
2021/05/11 15:38:35;;;;;;;5.32;3.78;;;16.60;77.20;;;;;;5066343;28;20041;-80
2021/05/11 15:41:02;;;;;;;4.90;3.10;;;16.60;77.40;;;;;;5062950;28;20036;-78
2021/05/11 15:43:29;;;;;;;5.95;3.90;;;16.60;77.50;;;;;;5066807;28;20444;-76
2021/05/11 15:45:56;;;;;;;7.03;4.35;;;16.50;77.60;;;;;;5056403;28;20055;-72
2021/05/11 15:48:24;;;;;;;6.25;4.20;;;16.50;77.70;;;;;;5067070;28;20048;-76
2021/05/11 15:50:56;;;;;;;6.93;4.20;;;16.50;77.80;;;;;;5069451;28;20071;-76
2021/05/11 15:53:23;;;;;;;5.65;3.97;;;16.50;77.90;;;;;;5071958;28;20433;-75
2021/05/11 15:55:51;;;;;;;5.60;4.00;;;16.50;78.00;;;;;;5068473;28;20037;-76
2021/05/11 15:58:18;;;;;;;5.53;3.70;;;16.50;78.10;;;;;;5047693;28;20044;-71
2021/05/11 16:00:51;;;;;;;5.28;3.85;;;16.50;78.10;;;;;;5058789;28;20045;-74
2021/05/11 16:03:19;;;;;;;5.65;3.78;;;16.50;78.20;;;;;;5065542;28;20096;-75
2021/05/11 16:05:47;;;;;;;5.82;3.65;;;16.60;78.20;;;;;;5051607;28;20049;-73
2021/05/11 16:08:18;;;;;;;4.65;2.85;;;16.60;78.20;;;;;;5053881;28;20039;-72
2021/05/11 16:10:46;;;;;;;4.68;3.33;;;16.60;78.30;;;;;;5061461;28;20051;-74
2021/05/11 16:13:16;;;;;;;5.05;3.55;;;16.50;78.40;;;;;;5069449;28;20044;-75
2021/05/11 16:15:51;;;;;;;5.25;3.08;;;16.50;78.40;;;;;;5045232;28;20041;-76
2021/05/11 16:18:19;;;;;;;4.45;2.88;;;16.60;78.50;;;;;;5059789;28;20041;-74
2021/05/11 16:20:46;;;;;;;5.13;3.33;;;16.60;78.50;;;;;;5046722;28;20086;-75
2021/05/11 16:23:13;;;;;;;4.53;3.40;;;16.50;78.50;;;;;;5062997;28;20087;-75
2021/05/11 16:25:40;;;;;;;4.85;3.25;;;16.50;78.60;;;;;;5045320;28;20517;-75
2021/05/11 16:28:08;;;;;;;5.70;3.53;;;16.50;78.70;;;;;;5068624;28;20049;-73
2021/05/11 16:30:38;;;;;;;5.75;3.55;;;16.50;78.70;;;;;;5053259;28;20056;-74
2021/05/11 16:33:09;;;;;;;4.15;2.83;;;16.50;78.80;;;;;;5069680;28;20033;-74
2021/05/11 16:35:37;;;;;;;5.13;3.95;;;16.50;78.80;;;;;;5071477;28;20047;-74
2021/05/11 16:38:04;;;;;;;5.00;3.33;;;16.50;78.90;;;;;;5068421;28;20040;-73
2021/05/11 16:40:31;;;;;;;5.55;3.38;;;16.50;78.90;;;;;;5066983;28;20046;-71
2021/05/11 16:43:00;;;;;;;6.00;3.25;;;16.50;79.00;;;;;;5066668;28;20047;-73
2021/05/11 16:45:27;;;;;;;6.03;3.45;;;16.50;79.60;;;;;;5070838;28;20062;-73
2021/05/11 16:47:54;;;;;;;5.35;3.55;;;16.50;79.00;;;;;;5036001;28;20129;-73
2021/05/11 16:50:24;;;;;;;4.75;3.08;;;16.50;79.00;;;;;;5065399;28;20432;-72
2021/05/11 16:52:52;;;;;;;4.60;2.97;;;16.50;79.00;;;;;;5067254;28;20036;-72
2021/05/11 16:55:20;;;;;;;5.80;3.35;;;16.40;79.00;;;;;;5063233;28;20033;-72
2021/05/11 16:57:47;;;;;;;6.28;2.90;;;16.40;79.10;;;;;;5065198;28;20095;-72
2021/05/11 17:00:15;;;;;;;4.97;2.70;;;16.40;79.10;;;;;;5069886;28;20032;-74
2021/05/11 17:02:42;;;;;;;5.93;2.90;;;16.40;79.20;;;;;;5059247;28;20065;-74
2021/05/11 17:05:10;;;;;;;4.32;3.05;;;16.40;79.30;;;;;;5055344;28;20052;-76
2021/05/11 17:07:38;;;;;;;4.72;2.97;;;16.40;79.40;;;;;;5072143;28;20052;-76
2021/05/11 17:10:06;;;;;;;4.05;2.67;;;16.30;79.40;;;;;;5072779;28;20079;-72
2021/05/11 17:12:33;;;;;;;4.53;3.13;;;16.40;79.60;;;;;;5059206;28;20036;-75
2021/05/11 17:15:01;;;;;;;5.82;3.25;;;16.40;79.70;;;;;;5066999;28;20044;-76